sensor_id;sensor_type;location;lat;lon;timestamp;P1;durP1;ratioP1;P2;durP2;ratioP2
32292;SDS011;43233;48.608;8.838;2022-12-07T00:01:08;8.17;;;5.60;;
32292;SDS011;43233;48.608;8.838;2022-12-07T00:03:35;9.00;;;5.90;;
32292;SDS011;43233;48.608;8.838;2022-12-07T00:06:01;8.07;;;6.17;;
32292;SDS011;43233;48.608;8.838;2022-12-07T00:08:28;7.70;;;6.23;;
32292;SDS011;43233;48.608;8.838;2022-12-07T00:10:54;8.70;;;6.20;;
32292;SDS011;43233;48.608;8.838;2022-12-07T00:13:20;8.63;;;6.10;;
32292;SDS011;43233;48.608;8.838;2022-12-07T00:15:46;8.70;;;6.10;;
32292;SDS011;43233;48.608;8.838;2022-12-07T00:18:11;10.53;;;6.47;;
32292;SDS011;43233;48.608;8.838;2022-12-07T00:20:37;8.10;;;5.77;;
32292;SDS011;43233;48.608;8.838;2022-12-07T00:23:02;6.53;;;5.70;;
32292;SDS011;43233;48.608;8.838;2022-12-07T00:25:29;7.03;;;5.63;;
32292;SDS011;43233;48.608;8.838;2022-12-07T00:27:55;7.73;;;6.50;;
32292;SDS011;43233;48.608;8.838;2022-12-07T00:30:22;7.47;;;6.03;;
32292;SDS011;43233;48.608;8.838;2022-12-07T00:32:48;6.53;;;5.70;;
32292;SDS011;43233;48.608;8.838;2022-12-07T00:35:14;7.70;;;6.03;;
32292;SDS011;43233;48.608;8.838;2022-12-07T00:37:39;5.87;;;5.30;;
32292;SDS011;43233;48.608;8.838;2022-12-07T00:40:05;9.83;;;5.23;;
32292;SDS011;43233;48.608;8.838;2022-12-07T00:42:32;7.80;;;5.90;;
32292;SDS011;43233;48.608;8.838;2022-12-07T00:44:58;7.20;;;5.27;;
32292;SDS011;43233;48.608;8.838;2022-12-07T00:47:23;10.10;;;6.03;;
32292;SDS011;43233;48.608;8.838;2022-12-07T00:49:49;8.40;;;6.00;;
32292;SDS011;43233;48.608;8.838;2022-12-07T00:52:14;7.10;;;5.20;;
32292;SDS011;43233;48.608;8.838;2022-12-07T00:54:40;6.80;;;5.90;;
32292;SDS011;43233;48.608;8.838;2022-12-07T00:57:06;6.50;;;5.33;;
32292;SDS011;43233;48.608;8.838;2022-12-07T00:59:31;7.80;;;5.80;;
32292;SDS011;43233;48.608;8.838;2022-12-07T01:01:57;6.93;;;5.73;;
32292;SDS011;43233;48.608;8.838;2022-12-07T01:04:23;12.73;;;6.07;;
32292;SDS011;43233;48.608;8.838;2022-12-07T01:06:48;9.00;;;6.33;;
32292;SDS011;43233;48.608;8.838;2022-12-07T01:09:14;9.33;;;5.90;;
32292;SDS011;43233;48.608;8.838;2022-12-07T01:11:39;7.17;;;5.93;;
32292;SDS011;43233;48.608;8.838;2022-12-07T01:14:05;7.27;;;5.60;;
32292;SDS011;43233;48.608;8.838;2022-12-07T01:16:31;8.43;;;5.70;;
32292;SDS011;43233;48.608;8.838;2022-12-07T01:18:58;6.68;;;5.07;;
32292;SDS011;43233;48.608;8.838;2022-12-07T01:21:26;7.40;;;5.10;;
32292;SDS011;43233;48.608;8.838;2022-12-07T01:24:01;8.67;;;6.47;;
32292;SDS011;43233;48.608;8.838;2022-12-07T01:26:27;5.63;;;4.83;;
32292;SDS011;43233;48.608;8.838;2022-12-07T01:28:53;7.63;;;5.47;;
32292;SDS011;43233;48.608;8.838;2022-12-07T01:31:20;6.80;;;6.03;;
32292;SDS011;43233;48.608;8.838;2022-12-07T01:33:49;6.23;;;5.50;;
32292;SDS011;43233;48.608;8.838;2022-12-07T01:36:18;6.23;;;5.00;;
32292;SDS011;43233;48.608;8.838;2022-12-07T01:38:47;6.80;;;5.70;;
32292;SDS011;43233;48.608;8.838;2022-12-07T01:41:16;5.10;;;4.63;;
32292;SDS011;43233;48.608;8.838;2022-12-07T01:46:55;9.20;;;6.67;;
32292;SDS011;43233;48.608;8.838;2022-12-07T01:49:35;6.43;;;5.80;;
32292;SDS011;43233;48.608;8.838;2022-12-07T01:54:41;8.20;;;6.50;;
32292;SDS011;43233;48.608;8.838;2022-12-07T01:57:08;8.10;;;6.57;;
32292;SDS011;43233;48.608;8.838;2022-12-07T01:59:35;9.40;;;6.67;;
32292;SDS011;43233;48.608;8.838;2022-12-07T02:02:02;9.07;;;7.40;;
32292;SDS011;43233;48.608;8.838;2022-12-07T02:04:32;9.43;;;7.40;;
32292;SDS011;43233;48.608;8.838;2022-12-07T02:06:58;10.47;;;7.23;;
32292;SDS011;43233;48.608;8.838;2022-12-07T02:09:24;9.17;;;6.80;;
32292;SDS011;43233;48.608;8.838;2022-12-07T02:11:50;6.90;;;6.20;;
32292;SDS011;43233;48.608;8.838;2022-12-07T02:14:16;8.20;;;7.13;;
32292;SDS011;43233;48.608;8.838;2022-12-07T02:24:54;9.70;;;8.20;;
32292;SDS011;43233;48.608;8.838;2022-12-07T02:30:16;10.47;;;7.47;;
32292;SDS011;43233;48.608;8.838;2022-12-07T02:32:51;8.90;;;6.90;;
32292;SDS011;43233;48.608;8.838;2022-12-07T02:35:47;8.03;;;7.23;;
32292;SDS011;43233;48.608;8.838;2022-12-07T02:38:40;8.60;;;6.87;;
32292;SDS011;43233;48.608;8.838;2022-12-07T02:41:12;8.33;;;6.80;;
32292;SDS011;43233;48.608;8.838;2022-12-07T02:43:54;9.00;;;6.93;;
32292;SDS011;43233;48.608;8.838;2022-12-07T02:46:23;9.40;;;6.80;;
32292;SDS011;43233;48.608;8.838;2022-12-07T02:48:58;9.40;;;6.70;;
32292;SDS011;43233;48.608;8.838;2022-12-07T02:51:24;9.90;;;8.17;;
32292;SDS011;43233;48.608;8.838;2022-12-07T02:53:51;9.20;;;7.20;;
32292;SDS011;43233;48.608;8.838;2022-12-07T03:02:25;9.93;;;7.43;;
32292;SDS011;43233;48.608;8.838;2022-12-07T03:10:54;9.03;;;6.70;;
32292;SDS011;43233;48.608;8.838;2022-12-07T03:18:39;13.07;;;6.27;;
32292;SDS011;43233;48.608;8.838;2022-12-07T03:21:26;8.57;;;6.60;;
32292;SDS011;43233;48.608;8.838;2022-12-07T03:23:57;7.70;;;6.60;;
32292;SDS011;43233;48.608;8.838;2022-12-07T03:26:37;9.33;;;6.90;;
32292;SDS011;43233;48.608;8.838;2022-12-07T03:29:17;8.57;;;6.50;;
32292;SDS011;43233;48.608;8.838;2022-12-07T03:31:58;11.20;;;7.63;;
32292;SDS011;43233;48.608;8.838;2022-12-07T03:34:59;10.23;;;7.70;;
32292;SDS011;43233;48.608;8.838;2022-12-07T03:37:36;10.10;;;7.40;;
32292;SDS011;43233;48.608;8.838;2022-12-07T03:40:15;9.10;;;7.40;;
32292;SDS011;43233;48.608;8.838;2022-12-07T03:42:53;8.77;;;6.73;;
32292;SDS011;43233;48.608;8.838;2022-12-07T03:45:22;7.07;;;6.17;;
32292;SDS011;43233;48.608;8.838;2022-12-07T03:50:31;25.63;;;15.30;;
32292;SDS011;43233;48.608;8.838;2022-12-07T03:53:17;39.73;;;18.00;;
32292;SDS011;43233;48.608;8.838;2022-12-07T03:55:46;25.07;;;13.17;;
32292;SDS011;43233;48.608;8.838;2022-12-07T03:58:15;19.27;;;11.83;;
32292;SDS011;43233;48.608;8.838;2022-12-07T04:00:43;12.00;;;7.27;;
32292;SDS011;43233;48.608;8.838;2022-12-07T04:03:10;12.57;;;9.10;;
32292;SDS011;43233;48.608;8.838;2022-12-07T04:05:36;12.50;;;8.40;;
32292;SDS011;43233;48.608;8.838;2022-12-07T04:08:02;14.47;;;9.57;;
32292;SDS011;43233;48.608;8.838;2022-12-07T04:10:28;13.50;;;9.17;;
32292;SDS011;43233;48.608;8.838;2022-12-07T04:12:53;16.30;;;10.23;;
32292;SDS011;43233;48.608;8.838;2022-12-07T04:15:19;18.17;;;11.70;;
32292;SDS011;43233;48.608;8.838;2022-12-07T04:17:44;16.90;;;10.80;;
32292;SDS011;43233;48.608;8.838;2022-12-07T04:20:10;11.70;;;8.43;;
32292;SDS011;43233;48.608;8.838;2022-12-07T04:22:36;10.43;;;7.73;;
32292;SDS011;43233;48.608;8.838;2022-12-07T04:25:02;9.33;;;7.30;;
32292;SDS011;43233;48.608;8.838;2022-12-07T04:27:28;8.73;;;7.00;;
32292;SDS011;43233;48.608;8.838;2022-12-07T04:29:54;11.80;;;6.93;;
32292;SDS011;43233;48.608;8.838;2022-12-07T04:32:20;8.57;;;7.17;;
32292;SDS011;43233;48.608;8.838;2022-12-07T04:34:47;7.30;;;5.97;;
32292;SDS011;43233;48.608;8.838;2022-12-07T04:37:13;7.80;;;6.43;;
32292;SDS011;43233;48.608;8.838;2022-12-07T04:39:39;10.63;;;6.50;;
32292;SDS011;43233;48.608;8.838;2022-12-07T04:42:04;9.30;;;6.90;;
32292;SDS011;43233;48.608;8.838;2022-12-07T04:44:30;6.63;;;6.03;;
32292;SDS011;43233;48.608;8.838;2022-12-07T04:46:56;7.80;;;6.60;;
32292;SDS011;43233;48.608;8.838;2022-12-07T04:49:22;8.47;;;7.17;;
32292;SDS011;43233;48.608;8.838;2022-12-07T04:51:49;6.90;;;6.30;;
32292;SDS011;43233;48.608;8.838;2022-12-07T04:54:16;8.17;;;6.60;;
32292;SDS011;43233;48.608;8.838;2022-12-07T04:56:42;7.30;;;6.60;;
32292;SDS011;43233;48.608;8.838;2022-12-07T04:59:09;9.93;;;6.80;;
32292;SDS011;43233;48.608;8.838;2022-12-07T05:01:38;6.20;;;5.60;;
32292;SDS011;43233;48.608;8.838;2022-12-07T05:04:04;9.63;;;6.03;;
32292;SDS011;43233;48.608;8.838;2022-12-07T05:06:30;7.20;;;6.10;;
32292;SDS011;43233;48.608;8.838;2022-12-07T05:08:55;7.03;;;6.30;;
32292;SDS011;43233;48.608;8.838;2022-12-07T05:11:21;7.73;;;5.80;;
32292;SDS011;43233;48.608;8.838;2022-12-07T05:14:07;9.93;;;7.30;;
32292;SDS011;43233;48.608;8.838;2022-12-07T05:16:44;9.63;;;6.43;;
32292;SDS011;43233;48.608;8.838;2022-12-07T05:19:12;9.60;;;6.93;;
32292;SDS011;43233;48.608;8.838;2022-12-07T05:21:38;11.87;;;7.53;;
32292;SDS011;43233;48.608;8.838;2022-12-07T05:24:05;15.13;;;9.37;;
32292;SDS011;43233;48.608;8.838;2022-12-07T05:26:31;12.60;;;8.57;;
32292;SDS011;43233;48.608;8.838;2022-12-07T05:28:57;16.33;;;10.10;;
32292;SDS011;43233;48.608;8.838;2022-12-07T05:31:23;18.57;;;7.97;;
32292;SDS011;43233;48.608;8.838;2022-12-07T05:33:50;13.50;;;9.30;;
32292;SDS011;43233;48.608;8.838;2022-12-07T05:36:15;11.27;;;8.20;;
32292;SDS011;43233;48.608;8.838;2022-12-07T05:38:41;15.47;;;8.87;;
32292;SDS011;43233;48.608;8.838;2022-12-07T05:41:07;12.40;;;7.57;;
32292;SDS011;43233;48.608;8.838;2022-12-07T05:43:53;9.00;;;7.70;;
32292;SDS011;43233;48.608;8.838;2022-12-07T05:46:20;11.73;;;7.80;;
32292;SDS011;43233;48.608;8.838;2022-12-07T05:48:45;14.20;;;8.73;;
32292;SDS011;43233;48.608;8.838;2022-12-07T05:51:11;16.60;;;8.60;;
32292;SDS011;43233;48.608;8.838;2022-12-07T05:53:36;36.17;;;10.63;;
32292;SDS011;43233;48.608;8.838;2022-12-07T05:56:02;17.10;;;10.63;;
32292;SDS011;43233;48.608;8.838;2022-12-07T05:58:28;15.97;;;11.10;;
32292;SDS011;43233;48.608;8.838;2022-12-07T06:01:12;15.03;;;9.33;;
32292;SDS011;43233;48.608;8.838;2022-12-07T06:03:37;14.27;;;9.10;;
32292;SDS011;43233;48.608;8.838;2022-12-07T06:06:03;11.17;;;7.80;;
32292;SDS011;43233;48.608;8.838;2022-12-07T06:08:29;8.23;;;6.67;;
32292;SDS011;43233;48.608;8.838;2022-12-07T06:10:54;8.63;;;6.63;;
32292;SDS011;43233;48.608;8.838;2022-12-07T06:13:40;7.77;;;6.27;;
32292;SDS011;43233;48.608;8.838;2022-12-07T06:16:05;8.40;;;6.00;;
32292;SDS011;43233;48.608;8.838;2022-12-07T06:18:31;8.80;;;6.57;;
32292;SDS011;43233;48.608;8.838;2022-12-07T06:20:57;11.97;;;6.20;;
32292;SDS011;43233;48.608;8.838;2022-12-07T06:23:22;8.37;;;6.70;;
32292;SDS011;43233;48.608;8.838;2022-12-07T06:25:48;7.10;;;6.00;;
32292;SDS011;43233;48.608;8.838;2022-12-07T06:28:13;7.00;;;5.97;;
32292;SDS011;43233;48.608;8.838;2022-12-07T06:30:39;8.70;;;6.93;;
32292;SDS011;43233;48.608;8.838;2022-12-07T06:33:05;8.67;;;6.77;;
32292;SDS011;43233;48.608;8.838;2022-12-07T06:35:32;9.60;;;6.37;;
32292;SDS011;43233;48.608;8.838;2022-12-07T06:37:58;9.50;;;7.07;;
32292;SDS011;43233;48.608;8.838;2022-12-07T06:40:24;8.23;;;6.00;;
32292;SDS011;43233;48.608;8.838;2022-12-07T06:42:49;7.27;;;5.80;;
32292;SDS011;43233;48.608;8.838;2022-12-07T06:45:15;12.20;;;5.93;;
32292;SDS011;43233;48.608;8.838;2022-12-07T06:47:41;10.37;;;7.00;;
32292;SDS011;43233;48.608;8.838;2022-12-07T06:50:06;6.63;;;5.40;;
32292;SDS011;43233;48.608;8.838;2022-12-07T06:52:33;9.67;;;6.27;;
32292;SDS011;43233;48.608;8.838;2022-12-07T06:54:59;7.10;;;6.40;;
32292;SDS011;43233;48.608;8.838;2022-12-07T06:57:24;6.23;;;5.60;;
32292;SDS011;43233;48.608;8.838;2022-12-07T06:59:50;8.20;;;6.00;;
32292;SDS011;43233;48.608;8.838;2022-12-07T07:02:16;9.53;;;6.70;;
32292;SDS011;43233;48.608;8.838;2022-12-07T07:04:42;7.00;;;5.60;;
32292;SDS011;43233;48.608;8.838;2022-12-07T07:07:07;9.13;;;7.17;;
32292;SDS011;43233;48.608;8.838;2022-12-07T07:09:33;9.90;;;7.17;;
32292;SDS011;43233;48.608;8.838;2022-12-07T07:11:58;11.93;;;7.43;;
32292;SDS011;43233;48.608;8.838;2022-12-07T07:14:24;9.43;;;7.57;;
32292;SDS011;43233;48.608;8.838;2022-12-07T07:16:50;8.97;;;6.70;;
32292;SDS011;43233;48.608;8.838;2022-12-07T07:19:15;8.47;;;6.90;;
32292;SDS011;43233;48.608;8.838;2022-12-07T07:21:41;8.13;;;6.33;;
32292;SDS011;43233;48.608;8.838;2022-12-07T07:24:07;14.57;;;8.80;;
32292;SDS011;43233;48.608;8.838;2022-12-07T07:26:32;67.73;;;33.23;;
32292;SDS011;43233;48.608;8.838;2022-12-07T07:28:58;30.73;;;16.23;;
32292;SDS011;43233;48.608;8.838;2022-12-07T07:31:23;23.43;;;13.33;;
32292;SDS011;43233;48.608;8.838;2022-12-07T07:33:49;12.20;;;6.80;;
32292;SDS011;43233;48.608;8.838;2022-12-07T07:36:15;7.13;;;5.57;;
32292;SDS011;43233;48.608;8.838;2022-12-07T07:38:40;9.63;;;6.30;;
32292;SDS011;43233;48.608;8.838;2022-12-07T07:41:06;9.50;;;5.70;;
32292;SDS011;43233;48.608;8.838;2022-12-07T07:43:32;7.77;;;6.17;;
32292;SDS011;43233;48.608;8.838;2022-12-07T07:45:57;10.80;;;6.90;;
32292;SDS011;43233;48.608;8.838;2022-12-07T07:48:23;15.07;;;8.50;;
32292;SDS011;43233;48.608;8.838;2022-12-07T07:50:50;15.57;;;7.30;;
32292;SDS011;43233;48.608;8.838;2022-12-07T07:53:16;13.63;;;8.53;;
32292;SDS011;43233;48.608;8.838;2022-12-07T07:55:41;13.40;;;7.97;;
32292;SDS011;43233;48.608;8.838;2022-12-07T07:58:15;16.40;;;9.40;;
32292;SDS011;43233;48.608;8.838;2022-12-07T08:00:41;13.83;;;9.60;;
32292;SDS011;43233;48.608;8.838;2022-12-07T08:03:06;10.70;;;7.20;;
32292;SDS011;43233;48.608;8.838;2022-12-07T08:05:32;18.40;;;10.37;;
32292;SDS011;43233;48.608;8.838;2022-12-07T08:07:58;14.67;;;9.13;;
32292;SDS011;43233;48.608;8.838;2022-12-07T08:10:23;15.07;;;8.40;;
32292;SDS011;43233;48.608;8.838;2022-12-07T08:12:49;8.40;;;6.70;;
32292;SDS011;43233;48.608;8.838;2022-12-07T08:15:33;19.57;;;10.30;;
32292;SDS011;43233;48.608;8.838;2022-12-07T08:18:01;21.07;;;10.43;;
32292;SDS011;43233;48.608;8.838;2022-12-07T08:20:26;15.30;;;10.27;;
32292;SDS011;43233;48.608;8.838;2022-12-07T08:22:54;11.40;;;8.30;;
32292;SDS011;43233;48.608;8.838;2022-12-07T08:25:20;15.67;;;8.63;;
32292;SDS011;43233;48.608;8.838;2022-12-07T08:27:47;10.43;;;7.40;;
32292;SDS011;43233;48.608;8.838;2022-12-07T08:30:13;13.70;;;8.37;;
32292;SDS011;43233;48.608;8.838;2022-12-07T08:32:39;12.20;;;7.97;;
32292;SDS011;43233;48.608;8.838;2022-12-07T08:35:04;13.27;;;8.40;;
32292;SDS011;43233;48.608;8.838;2022-12-07T08:37:31;14.17;;;8.30;;
32292;SDS011;43233;48.608;8.838;2022-12-07T08:39:57;16.50;;;9.17;;
32292;SDS011;43233;48.608;8.838;2022-12-07T08:42:22;16.80;;;8.23;;
32292;SDS011;43233;48.608;8.838;2022-12-07T08:44:52;14.53;;;8.43;;
32292;SDS011;43233;48.608;8.838;2022-12-07T08:47:18;10.70;;;7.00;;
32292;SDS011;43233;48.608;8.838;2022-12-07T08:49:45;9.57;;;7.10;;
32292;SDS011;43233;48.608;8.838;2022-12-07T08:52:14;8.53;;;6.70;;
32292;SDS011;43233;48.608;8.838;2022-12-07T08:54:40;13.13;;;7.80;;
32292;SDS011;43233;48.608;8.838;2022-12-07T08:57:07;9.77;;;7.00;;
32292;SDS011;43233;48.608;8.838;2022-12-07T08:59:34;11.73;;;8.37;;
32292;SDS011;43233;48.608;8.838;2022-12-07T09:02:02;13.20;;;8.40;;
32292;SDS011;43233;48.608;8.838;2022-12-07T09:04:29;7.80;;;6.60;;
32292;SDS011;43233;48.608;8.838;2022-12-07T09:06:55;5.70;;;5.00;;
32292;SDS011;43233;48.608;8.838;2022-12-07T09:09:21;7.83;;;5.73;;
32292;SDS011;43233;48.608;8.838;2022-12-07T09:11:46;6.93;;;4.80;;
32292;SDS011;43233;48.608;8.838;2022-12-07T09:14:12;6.77;;;5.43;;
32292;SDS011;43233;48.608;8.838;2022-12-07T09:16:38;5.87;;;4.70;;
32292;SDS011;43233;48.608;8.838;2022-12-07T09:19:04;5.30;;;4.80;;
32292;SDS011;43233;48.608;8.838;2022-12-07T09:21:30;7.30;;;5.93;;
32292;SDS011;43233;48.608;8.838;2022-12-07T09:23:55;10.73;;;6.67;;
32292;SDS011;43233;48.608;8.838;2022-12-07T09:26:21;9.00;;;5.13;;
32292;SDS011;43233;48.608;8.838;2022-12-07T09:28:47;7.57;;;5.80;;
32292;SDS011;43233;48.608;8.838;2022-12-07T09:31:12;5.90;;;4.90;;
32292;SDS011;43233;48.608;8.838;2022-12-07T09:33:38;5.53;;;4.50;;
32292;SDS011;43233;48.608;8.838;2022-12-07T09:36:04;8.20;;;5.20;;
32292;SDS011;43233;48.608;8.838;2022-12-07T09:38:30;6.23;;;5.47;;
32292;SDS011;43233;48.608;8.838;2022-12-07T09:40:57;6.63;;;5.43;;
32292;SDS011;43233;48.608;8.838;2022-12-07T09:43:33;6.37;;;4.90;;
32292;SDS011;43233;48.608;8.838;2022-12-07T09:46:00;5.53;;;4.73;;
32292;SDS011;43233;48.608;8.838;2022-12-07T09:48:29;5.00;;;4.50;;
32292;SDS011;43233;48.608;8.838;2022-12-07T09:50:57;5.97;;;5.23;;
32292;SDS011;43233;48.608;8.838;2022-12-07T09:53:30;8.23;;;6.93;;
32292;SDS011;43233;48.608;8.838;2022-12-07T09:55:58;8.53;;;7.57;;
32292;SDS011;43233;48.608;8.838;2022-12-07T09:58:25;10.13;;;6.07;;
32292;SDS011;43233;48.608;8.838;2022-12-07T10:00:56;6.87;;;6.23;;
32292;SDS011;43233;48.608;8.838;2022-12-07T10:03:26;7.20;;;6.03;;
32292;SDS011;43233;48.608;8.838;2022-12-07T10:05:53;9.00;;;6.73;;
32292;SDS011;43233;48.608;8.838;2022-12-07T10:08:20;9.80;;;6.93;;
32292;SDS011;43233;48.608;8.838;2022-12-07T10:10:46;8.70;;;6.03;;
32292;SDS011;43233;48.608;8.838;2022-12-07T10:13:33;10.20;;;5.47;;
32292;SDS011;43233;48.608;8.838;2022-12-07T10:15:59;9.23;;;6.63;;
32292;SDS011;43233;48.608;8.838;2022-12-07T10:23:38;11.47;;;7.50;;
32292;SDS011;43233;48.608;8.838;2022-12-07T10:28:49;12.30;;;6.93;;
32292;SDS011;43233;48.608;8.838;2022-12-07T10:31:16;12.77;;;6.40;;
32292;SDS011;43233;48.608;8.838;2022-12-07T10:33:48;7.23;;;6.13;;
32292;SDS011;43233;48.608;8.838;2022-12-07T10:36:23;9.17;;;6.87;;
32292;SDS011;43233;48.608;8.838;2022-12-07T10:41:56;10.13;;;7.80;;
32292;SDS011;43233;48.608;8.838;2022-12-07T10:44:28;8.63;;;6.23;;
32292;SDS011;43233;48.608;8.838;2022-12-07T11:14:01;14.03;;;8.23;;
32292;SDS011;43233;48.608;8.838;2022-12-07T11:22:18;7.50;;;6.57;;
32292;SDS011;43233;48.608;8.838;2022-12-07T11:30:30;9.93;;;7.40;;
32292;SDS011;43233;48.608;8.838;2022-12-07T11:35:56;11.10;;;7.90;;
32292;SDS011;43233;48.608;8.838;2022-12-07T11:38:57;12.30;;;7.03;;
32292;SDS011;43233;48.608;8.838;2022-12-07T11:41:31;9.37;;;6.30;;
32292;SDS011;43233;48.608;8.838;2022-12-07T11:44:02;9.13;;;6.10;;
32292;SDS011;43233;48.608;8.838;2022-12-07T11:49:13;9.47;;;7.13;;
32292;SDS011;43233;48.608;8.838;2022-12-07T11:51:44;9.97;;;6.30;;
32292;SDS011;43233;48.608;8.838;2022-12-07T11:54:17;16.80;;;7.40;;
32292;SDS011;43233;48.608;8.838;2022-12-07T11:56:47;10.23;;;6.80;;
32292;SDS011;43233;48.608;8.838;2022-12-07T11:59:38;9.90;;;6.37;;
32292;SDS011;43233;48.608;8.838;2022-12-07T12:02:18;16.83;;;9.97;;
32292;SDS011;43233;48.608;8.838;2022-12-07T12:05:13;8.67;;;7.10;;
32292;SDS011;43233;48.608;8.838;2022-12-07T12:07:42;6.53;;;5.20;;
32292;SDS011;43233;48.608;8.838;2022-12-07T12:12:50;11.30;;;9.47;;
32292;SDS011;43233;48.608;8.838;2022-12-07T12:20:51;6.70;;;5.17;;
32292;SDS011;43233;48.608;8.838;2022-12-07T12:23:36;2.57;;;2.47;;
32292;SDS011;43233;48.608;8.838;2022-12-07T12:26:13;2.73;;;2.53;;
32292;SDS011;43233;48.608;8.838;2022-12-07T12:29:04;3.00;;;2.80;;
32292;SDS011;43233;48.608;8.838;2022-12-07T12:31:35;2.87;;;2.60;;
32292;SDS011;43233;48.608;8.838;2022-12-07T12:34:10;2.53;;;2.43;;
32292;SDS011;43233;48.608;8.838;2022-12-07T12:37:13;3.07;;;2.87;;
32292;SDS011;43233;48.608;8.838;2022-12-07T12:42:49;5.90;;;2.20;;
32292;SDS011;43233;48.608;8.838;2022-12-07T12:48:00;2.37;;;2.13;;
32292;SDS011;43233;48.608;8.838;2022-12-07T12:50:36;6.23;;;2.73;;
32292;SDS011;43233;48.608;8.838;2022-12-07T13:00:43;4.47;;;3.20;;
32292;SDS011;43233;48.608;8.838;2022-12-07T13:03:23;2.80;;;2.60;;
32292;SDS011;43233;48.608;8.838;2022-12-07T13:11:56;2.43;;;2.33;;
32292;SDS011;43233;48.608;8.838;2022-12-07T13:17:07;3.20;;;3.00;;
32292;SDS011;43233;48.608;8.838;2022-12-07T13:24:56;2.97;;;2.77;;
32292;SDS011;43233;48.608;8.838;2022-12-07T13:27:33;3.53;;;3.10;;
32292;SDS011;43233;48.608;8.838;2022-12-07T13:30:03;3.40;;;3.20;;
32292;SDS011;43233;48.608;8.838;2022-12-07T13:32:41;3.83;;;3.03;;
32292;SDS011;43233;48.608;8.838;2022-12-07T13:35:26;3.90;;;3.60;;
32292;SDS011;43233;48.608;8.838;2022-12-07T13:37:52;3.57;;;3.33;;
32292;SDS011;43233;48.608;8.838;2022-12-07T13:40:18;3.60;;;3.30;;
32292;SDS011;43233;48.608;8.838;2022-12-07T13:42:47;3.03;;;2.80;;
32292;SDS011;43233;48.608;8.838;2022-12-07T13:45:23;2.80;;;2.63;;
32292;SDS011;43233;48.608;8.838;2022-12-07T13:48:15;4.30;;;3.90;;
32292;SDS011;43233;48.608;8.838;2022-12-07T13:50:41;4.13;;;3.70;;
32292;SDS011;43233;48.608;8.838;2022-12-07T13:53:10;3.60;;;3.30;;
32292;SDS011;43233;48.608;8.838;2022-12-07T13:55:43;3.77;;;3.23;;
32292;SDS011;43233;48.608;8.838;2022-12-07T13:58:10;3.40;;;3.20;;
32292;SDS011;43233;48.608;8.838;2022-12-07T14:00:36;3.77;;;3.33;;
32292;SDS011;43233;48.608;8.838;2022-12-07T14:03:03;4.67;;;4.27;;
32292;SDS011;43233;48.608;8.838;2022-12-07T14:05:46;5.20;;;4.67;;
32292;SDS011;43233;48.608;8.838;2022-12-07T14:08:29;3.90;;;3.60;;
32292;SDS011;43233;48.608;8.838;2022-12-07T14:10:55;4.17;;;3.77;;
32292;SDS011;43233;48.608;8.838;2022-12-07T14:16:16;4.43;;;4.03;;
32292;SDS011;43233;48.608;8.838;2022-12-07T14:18:46;5.33;;;4.73;;
32292;SDS011;43233;48.608;8.838;2022-12-07T14:21:16;4.17;;;3.80;;
32292;SDS011;43233;48.608;8.838;2022-12-07T14:23:44;4.07;;;3.70;;
32292;SDS011;43233;48.608;8.838;2022-12-07T14:26:14;6.10;;;4.23;;
32292;SDS011;43233;48.608;8.838;2022-12-07T14:28:44;4.30;;;3.90;;
32292;SDS011;43233;48.608;8.838;2022-12-07T14:31:11;5.30;;;3.43;;
32292;SDS011;43233;48.608;8.838;2022-12-07T14:33:37;4.00;;;3.70;;
32292;SDS011;43233;48.608;8.838;2022-12-07T14:36:03;4.17;;;3.87;;
32292;SDS011;43233;48.608;8.838;2022-12-07T14:38:29;4.17;;;3.87;;
32292;SDS011;43233;48.608;8.838;2022-12-07T14:40:55;5.73;;;3.37;;
32292;SDS011;43233;48.608;8.838;2022-12-07T14:43:41;4.50;;;4.10;;
32292;SDS011;43233;48.608;8.838;2022-12-07T14:46:07;4.13;;;3.73;;
32292;SDS011;43233;48.608;8.838;2022-12-07T14:48:33;5.37;;;4.90;;
32292;SDS011;43233;48.608;8.838;2022-12-07T14:50:59;4.03;;;3.73;;
32292;SDS011;43233;48.608;8.838;2022-12-07T14:53:27;5.57;;;4.97;;
32292;SDS011;43233;48.608;8.838;2022-12-07T14:55:56;6.50;;;3.70;;
32292;SDS011;43233;48.608;8.838;2022-12-07T14:58:21;4.40;;;4.00;;
32292;SDS011;43233;48.608;8.838;2022-12-07T15:00:47;4.13;;;3.73;;
32292;SDS011;43233;48.608;8.838;2022-12-07T15:03:13;4.70;;;3.47;;
32292;SDS011;43233;48.608;8.838;2022-12-07T15:05:39;7.10;;;4.70;;
32292;SDS011;43233;48.608;8.838;2022-12-07T15:08:05;3.73;;;3.33;;
32292;SDS011;43233;48.608;8.838;2022-12-07T15:10:32;8.47;;;5.80;;
32292;SDS011;43233;48.608;8.838;2022-12-07T15:12:58;17.90;;;9.43;;
32292;SDS011;43233;48.608;8.838;2022-12-07T15:15:45;12.43;;;7.33;;
32292;SDS011;43233;48.608;8.838;2022-12-07T15:18:15;10.10;;;6.90;;
32292;SDS011;43233;48.608;8.838;2022-12-07T15:20:41;10.83;;;6.20;;
32292;SDS011;43233;48.608;8.838;2022-12-07T15:23:07;7.47;;;4.80;;
32292;SDS011;43233;48.608;8.838;2022-12-07T15:25:33;4.57;;;3.70;;
32292;SDS011;43233;48.608;8.838;2022-12-07T15:27:58;4.43;;;3.63;;
32292;SDS011;43233;48.608;8.838;2022-12-07T15:30:24;4.00;;;3.70;;
32292;SDS011;43233;48.608;8.838;2022-12-07T15:32:52;3.73;;;3.37;;
32292;SDS011;43233;48.608;8.838;2022-12-07T15:35:18;3.73;;;3.43;;
32292;SDS011;43233;48.608;8.838;2022-12-07T15:37:44;4.40;;;3.67;;
32292;SDS011;43233;48.608;8.838;2022-12-07T15:40:10;3.83;;;3.60;;
32292;SDS011;43233;48.608;8.838;2022-12-07T15:42:36;5.77;;;4.80;;
32292;SDS011;43233;48.608;8.838;2022-12-07T15:45:03;8.83;;;5.90;;
32292;SDS011;43233;48.608;8.838;2022-12-07T15:47:36;15.03;;;7.63;;
32292;SDS011;43233;48.608;8.838;2022-12-07T15:50:04;12.67;;;7.70;;
32292;SDS011;43233;48.608;8.838;2022-12-07T15:52:31;25.27;;;9.40;;
32292;SDS011;43233;48.608;8.838;2022-12-07T15:54:57;17.50;;;8.10;;
32292;SDS011;43233;48.608;8.838;2022-12-07T15:57:24;10.13;;;6.00;;
32292;SDS011;43233;48.608;8.838;2022-12-07T15:59:51;5.50;;;4.40;;
32292;SDS011;43233;48.608;8.838;2022-12-07T16:02:16;4.60;;;4.03;;
32292;SDS011;43233;48.608;8.838;2022-12-07T16:04:42;12.53;;;8.70;;
32292;SDS011;43233;48.608;8.838;2022-12-07T16:07:08;12.07;;;8.60;;
32292;SDS011;43233;48.608;8.838;2022-12-07T16:09:36;14.43;;;8.17;;
32292;SDS011;43233;48.608;8.838;2022-12-07T16:12:02;9.73;;;7.33;;
32292;SDS011;43233;48.608;8.838;2022-12-07T16:14:28;8.90;;;6.30;;
32292;SDS011;43233;48.608;8.838;2022-12-07T16:16:54;9.53;;;7.07;;
32292;SDS011;43233;48.608;8.838;2022-12-07T16:19:20;7.20;;;5.93;;
32292;SDS011;43233;48.608;8.838;2022-12-07T16:21:46;9.43;;;5.97;;
32292;SDS011;43233;48.608;8.838;2022-12-07T16:24:11;8.63;;;6.93;;
32292;SDS011;43233;48.608;8.838;2022-12-07T16:26:40;11.50;;;8.40;;
32292;SDS011;43233;48.608;8.838;2022-12-07T16:29:05;10.40;;;8.20;;
32292;SDS011;43233;48.608;8.838;2022-12-07T16:31:31;9.47;;;8.43;;
32292;SDS011;43233;48.608;8.838;2022-12-07T16:33:57;10.70;;;8.33;;
32292;SDS011;43233;48.608;8.838;2022-12-07T16:36:23;12.07;;;8.10;;
32292;SDS011;43233;48.608;8.838;2022-12-07T16:38:52;9.00;;;7.90;;
32292;SDS011;43233;48.608;8.838;2022-12-07T16:41:18;9.87;;;7.60;;
32292;SDS011;43233;48.608;8.838;2022-12-07T16:43:44;10.33;;;6.53;;
32292;SDS011;43233;48.608;8.838;2022-12-07T16:46:09;7.03;;;5.83;;
32292;SDS011;43233;48.608;8.838;2022-12-07T16:48:38;5.40;;;4.90;;
32292;SDS011;43233;48.608;8.838;2022-12-07T16:51:05;5.67;;;5.17;;
32292;SDS011;43233;48.608;8.838;2022-12-07T16:53:33;9.33;;;7.30;;
32292;SDS011;43233;48.608;8.838;2022-12-07T16:56:00;10.13;;;6.70;;
32292;SDS011;43233;48.608;8.838;2022-12-07T16:58:25;8.03;;;6.33;;
32292;SDS011;43233;48.608;8.838;2022-12-07T17:00:51;7.40;;;5.50;;
32292;SDS011;43233;48.608;8.838;2022-12-07T17:03:17;5.67;;;5.10;;